createdAt,value
2018-12-24T12:10:16.146Z,17.37
2018-12-24T12:12:24.409Z,17.00
2018-12-24T12:14:30.209Z,15.00
2018-12-24T12:16:34.271Z,15.00
2018-12-24T12:18:37.648Z,15.00
2018-12-24T12:20:52.394Z,16.00
2018-12-24T12:22:52.602Z,16.00
2018-12-24T12:24:58.283Z,15.75
2018-12-24T12:27:01.551Z,15.00
2018-12-24T12:29:05.678Z,14.40
2018-12-24T12:31:13.326Z,15.38
2018-12-24T12:33:17.200Z,14.00
2018-12-24T12:35:20.543Z,12.50
2018-12-24T12:37:26.298Z,13.00
2018-12-24T12:39:33.767Z,14.00
2018-12-24T12:41:39.613Z,14.00
2018-12-24T12:43:45.299Z,13.00
2018-12-24T12:45:54.440Z,13.00
2018-12-24T12:51:23.314Z,12.00
2018-12-24T12:53:26.542Z,13.00
2018-12-24T12:55:30.661Z,11.60
2018-12-24T12:57:35.799Z,12.00
2018-12-24T12:59:39.063Z,13.00
2018-12-24T13:01:44.677Z,12.13
2018-12-24T13:03:54.027Z,11.00
2018-12-24T13:05:59.035Z,10.57
2018-12-24T13:08:04.559Z,10.14
2018-12-24T13:10:07.883Z,10.00
2018-12-24T13:12:14.388Z,10.00
2018-12-24T13:14:21.959Z,10.33
2018-12-24T13:16:27.004Z,12.00
2018-12-24T13:18:30.147Z,10.50
2018-12-24T13:20:34.350Z,11.00
2018-12-24T13:22:37.643Z,11.50
2018-12-24T13:24:42.520Z,10.00
2018-12-24T13:26:48.282Z,11.25
2018-12-24T13:28:51.629Z,11.75
2018-12-24T13:30:58.277Z,11.00
2018-12-24T13:33:02.256Z,10.00
2018-12-24T13:35:11.404Z,10.75
2018-12-24T13:37:18.030Z,9.75
2018-12-24T13:39:21.259Z,11.00
2018-12-24T13:41:27.938Z,10.75
2018-12-24T13:43:32.038Z,9.00
2018-12-24T13:45:38.628Z,10.63
2018-12-24T13:47:44.515Z,10.00
2018-12-24T13:49:49.468Z,10.86
2018-12-24T13:51:53.531Z,9.00
2018-12-24T13:53:57.765Z,10.00
2018-12-24T13:56:00.994Z,10.00
2018-12-24T13:58:04.235Z,11.00
2018-12-24T14:00:07.535Z,10.00
2018-12-24T14:02:16.784Z,9.18
2018-12-24T14:04:22.335Z,9.86
2018-12-24T14:06:31.454Z,9.75
2018-12-24T14:08:39.810Z,8.43
2018-12-24T14:10:44.859Z,9.43
2018-12-24T14:12:48.872Z,9.00
2018-12-24T14:14:52.134Z,10.75
2018-12-24T14:16:55.492Z,9.00
2018-12-24T14:19:02.135Z,9.25
2018-12-24T14:21:08.683Z,10.00
2018-12-24T14:23:13.684Z,9.00
2018-12-24T14:25:19.505Z,9.00
2018-12-24T14:27:27.727Z,8.00
2018-12-24T14:29:36.943Z,10.00
2018-12-24T14:31:40.905Z,8.00
2018-12-24T14:33:50.031Z,8.64
2018-12-24T14:35:53.384Z,8.00
2018-12-24T14:37:57.483Z,9.00
2018-12-24T14:40:03.002Z,7.00
2018-12-24T14:42:07.343Z,8.00
2018-12-24T14:44:15.743Z,8.00
2018-12-24T14:46:25.736Z,8.00
2018-12-24T14:48:30.573Z,8.33
2018-12-24T14:50:46.986Z,7.57
2018-12-24T14:52:48.817Z,7.86
2018-12-24T14:54:52.044Z,7.00
2018-12-24T14:56:56.302Z,7.00
2018-12-24T14:59:02.044Z,8.00
2018-12-24T15:01:06.154Z,7.00
2018-12-24T15:03:14.334Z,7.00
2018-12-24T15:05:19.475Z,8.00
2018-12-24T15:07:25.979Z,8.00
2018-12-24T15:09:34.242Z,8.00
2018-12-24T15:11:42.608Z,7.71
2018-12-24T15:13:46.801Z,7.00
2018-12-24T15:15:55.047Z,8.29
2018-12-24T15:18:03.183Z,7.00
2018-12-24T15:20:08.109Z,7.00
2018-12-24T15:22:14.786Z,7.50
2018-12-24T15:24:23.967Z,8.64
2018-12-24T15:26:27.178Z,9.50
2018-12-24T15:28:30.435Z,11.00
2018-12-24T15:30:37.928Z,15.00
2018-12-24T15:32:44.595Z,13.00
2018-12-24T15:34:54.463Z,15.00
2018-12-24T15:37:02.024Z,16.25
2018-12-24T15:39:07.824Z,13.00
2018-12-24T15:41:11.856Z,15.00
2018-12-24T15:43:18.614Z,15.43
2018-12-24T15:45:24.361Z,15.25
2018-12-24T15:47:29.268Z,15.00
2018-12-24T15:49:35.956Z,15.13
2018-12-24T15:51:39.337Z,14.67
2018-12-24T15:53:43.350Z,15.75
2018-12-24T15:55:47.434Z,16.75
2018-12-24T15:57:56.687Z,16.73
2018-12-24T16:00:04.265Z,17.67
2018-12-24T16:02:12.398Z,16.62
2018-12-24T16:04:21.581Z,17.56
2018-12-24T16:06:28.971Z,17.44
2018-12-24T16:08:36.539Z,19.00
2018-12-24T16:10:43.170Z,20.00
2018-12-24T16:12:47.316Z,20.00
2018-12-24T16:14:51.498Z,21.00
2018-12-24T16:16:59.835Z,20.00
2018-12-24T16:19:03.916Z,22.00
2018-12-24T16:21:10.727Z,22.22
2018-12-24T16:23:17.379Z,21.00
2018-12-24T16:25:24.841Z,22.33
2018-12-24T16:27:33.951Z,22.78
2018-12-24T16:29:40.619Z,22.00
2018-12-24T16:31:47.347Z,23.00
2018-12-24T16:33:54.004Z,23.00
2018-12-24T16:38:16.510Z,22.67
2018-12-24T16:42:47.336Z,23.00
2018-12-24T16:44:56.553Z,22.56
2018-12-24T16:47:05.712Z,23.00
2018-12-24T16:49:14.807Z,22.33
2018-12-24T16:51:24.852Z,22.00
2018-12-24T16:53:31.563Z,22.00
2018-12-24T16:55:39.915Z,20.88
2018-12-24T16:57:47.297Z,21.56
2018-12-24T16:59:53.991Z,22.00
2018-12-24T17:02:04.803Z,20.25
2018-12-24T17:04:11.478Z,21.89
2018-12-24T17:06:19.823Z,20.67
2018-12-24T17:08:26.507Z,20.00
2018-12-24T17:10:33.184Z,20.00
2018-12-24T17:12:39.816Z,20.00
2018-12-24T17:14:43.971Z,20.00
2018-12-24T17:16:54.827Z,19.00
2018-12-24T17:19:01.523Z,19.00
2018-12-24T17:21:08.138Z,18.00
2018-12-24T17:23:17.240Z,19.00
2018-12-24T17:25:25.595Z,19.11
2018-12-24T17:27:33.097Z,18.56
2018-12-24T17:29:39.778Z,17.62
2018-12-24T17:31:50.480Z,18.00
2018-12-24T17:33:56.363Z,15.75
2018-12-24T17:36:04.610Z,17.00
2018-12-24T17:38:12.982Z,17.00
2018-12-24T17:40:17.081Z,16.25
2018-12-24T17:42:25.455Z,17.00
2018-12-24T17:44:32.984Z,16.57
2018-12-24T17:46:36.987Z,16.00
2018-12-24T17:48:42.810Z,16.00
2018-12-24T17:50:46.911Z,16.00
2018-12-24T17:52:51.063Z,18.40
2018-12-24T17:54:54.431Z,15.00
2018-12-24T17:57:00.278Z,16.00
2018-12-24T17:59:03.664Z,15.00
2018-12-24T18:01:06.810Z,15.00
2018-12-24T18:03:12.610Z,16.00
2018-12-24T18:05:19.235Z,13.43
2018-12-24T18:07:28.363Z,14.73
2018-12-24T18:09:35.860Z,14.63
2018-12-24T18:11:39.187Z,14.00
2018-12-24T18:13:43.143Z,16.00
2018-12-24T18:15:48.206Z,14.38
2018-12-24T18:17:53.979Z,16.00
2018-12-24T18:19:57.271Z,14.00
2018-12-24T18:22:00.670Z,12.00
2018-12-24T18:24:04.635Z,12.75
2018-12-24T18:26:08.059Z,13.00
2018-12-24T18:28:13.791Z,12.25
2018-12-24T18:30:17.854Z,14.00
2018-12-24T18:32:23.731Z,13.00
2018-12-24T18:34:29.463Z,14.38
2018-12-24T18:36:35.244Z,13.00
2018-12-24T18:38:41.928Z,13.38
2018-12-24T18:40:49.323Z,11.63
2018-12-24T18:42:55.147Z,12.00
2018-12-24T18:45:00.891Z,13.00
2018-12-24T18:47:06.697Z,13.00
2018-12-24T18:49:15.788Z,11.00
2018-12-24T18:51:22.449Z,12.71
2018-12-24T18:53:29.828Z,12.00
2018-12-24T18:55:33.149Z,11.75
2018-12-24T18:57:38.119Z,12.00
2018-12-24T18:59:41.406Z,11.00
2018-12-24T19:01:44.698Z,11.00
2018-12-24T19:03:50.528Z,11.00
2018-12-24T19:05:55.534Z,11.00
2018-12-24T19:07:58.720Z,10.25
2018-12-24T19:10:05.269Z,10.86
2018-12-24T19:12:10.353Z,10.57
2018-12-24T19:14:18.620Z,11.00
2018-12-24T19:16:22.703Z,9.60
2018-12-24T19:18:26.102Z,10.00
2018-12-24T19:20:31.072Z,10.00
2018-12-24T19:22:37.587Z,11.57
2018-12-24T19:24:46.690Z,10.00
2018-12-24T19:26:54.255Z,10.00
2018-12-24T19:28:59.206Z,11.29
2018-12-24T19:31:08.256Z,11.00
2018-12-24T19:33:17.436Z,11.75
2018-12-24T19:35:23.294Z,9.57
2018-12-24T19:37:26.592Z,10.00
2018-12-24T19:39:33.055Z,10.86
2018-12-24T19:41:42.271Z,10.00
2018-12-24T19:43:48.038Z,10.00
2018-12-24T19:45:54.642Z,10.00
2018-12-24T19:48:01.341Z,10.71
2018-12-24T19:50:06.347Z,12.00
2018-12-24T19:52:10.354Z,12.75
2018-12-24T19:54:14.422Z,11.00
2018-12-24T19:56:17.816Z,13.00
2018-12-24T19:58:21.114Z,12.33
2018-12-24T20:00:24.424Z,13.00
2018-12-24T20:02:28.458Z,14.00
2018-12-24T20:04:35.129Z,12.00
2018-12-24T20:06:39.236Z,12.60
2018-12-24T20:08:45.154Z,14.00
2018-12-24T20:10:50.856Z,13.25
2018-12-24T20:12:54.994Z,12.00
2018-12-24T20:14:58.350Z,12.00
2018-12-24T20:17:04.063Z,14.75
2018-12-24T20:19:09.107Z,14.00
2018-12-24T20:21:14.975Z,14.00
2018-12-24T20:23:20.786Z,14.75
2018-12-24T20:25:26.468Z,14.00
2018-12-24T20:27:32.340Z,13.62
2018-12-24T20:29:38.292Z,13.00
2018-12-24T20:31:45.632Z,14.75
2018-12-24T20:33:51.395Z,14.00
2018-12-24T20:35:58.808Z,13.38
2018-12-24T20:38:04.721Z,12.88
2018-12-24T20:40:08.758Z,13.25
2018-12-24T20:42:17.044Z,13.00
2018-12-24T20:44:26.216Z,13.75
2018-12-24T20:46:30.325Z,13.00
2018-12-24T20:48:37.856Z,15.00
2018-12-24T20:50:45.230Z,13.62
2018-12-24T20:52:48.612Z,13.00
2018-12-24T20:54:51.876Z,12.00
2018-12-24T20:56:57.742Z,12.00
2018-12-24T20:59:01.750Z,13.00
2018-12-24T21:01:08.411Z,14.00
2018-12-24T21:03:11.764Z,12.00
2018-12-24T21:05:15.047Z,12.33
2018-12-24T21:07:20.100Z,11.57
2018-12-24T21:09:25.697Z,12.00
2018-12-24T21:11:30.827Z,13.00
2018-12-24T21:13:37.343Z,12.00
2018-12-24T21:15:40.763Z,11.25
2018-12-24T21:17:44.019Z,13.75
2018-12-24T21:19:49.882Z,10.71
2018-12-24T21:21:54.906Z,11.29
2018-12-24T21:23:59.772Z,11.29
2018-12-24T21:26:04.859Z,11.57
2018-12-24T21:28:10.464Z,12.00
2018-12-24T21:30:17.159Z,12.00
2018-12-24T21:32:22.136Z,11.00
2018-12-24T21:34:26.221Z,12.80
2018-12-24T21:36:32.980Z,12.37
2018-12-24T21:38:37.063Z,11.00
2018-12-24T21:40:40.410Z,12.00
2018-12-24T21:42:43.763Z,11.00
2018-12-24T21:44:46.959Z,10.00
2018-12-24T21:46:53.581Z,10.13
2018-12-24T21:48:58.765Z,10.57
2018-12-24T21:51:05.518Z,12.00
2018-12-24T21:53:10.312Z,11.43
2018-12-24T21:55:13.507Z,11.75
2018-12-24T21:57:20.086Z,11.63
2018-12-24T21:59:28.477Z,11.70
2018-12-24T22:01:35.063Z,10.63
2018-12-24T22:03:38.428Z,12.00
2018-12-24T22:05:41.687Z,11.00
2018-12-24T22:07:44.935Z,10.00
2018-12-24T22:09:50.779Z,11.00
2018-12-24T22:11:59.143Z,10.20
2018-12-24T22:14:02.434Z,11.00
2018-12-24T22:16:08.239Z,8.57
2018-12-24T22:18:14.168Z,11.00
2018-12-24T22:20:18.978Z,9.50
2018-12-24T22:22:27.320Z,9.00
2018-12-24T22:24:31.444Z,10.00
2018-12-24T22:26:35.617Z,10.00
2018-12-24T22:28:40.526Z,9.43
2018-12-24T22:30:48.847Z,9.00
2018-12-24T22:32:58.727Z,9.92
2018-12-24T22:35:03.865Z,8.67
2018-12-24T22:37:09.570Z,10.57
2018-12-24T22:39:17.900Z,9.00
2018-12-24T22:41:23.721Z,9.00
2018-12-24T22:43:27.780Z,10.00
2018-12-24T22:45:36.152Z,9.00
2018-12-24T22:47:40.204Z,9.80
2018-12-24T22:49:43.492Z,9.50
2018-12-24T22:51:52.704Z,9.91
2018-12-24T22:53:56.736Z,8.40
2018-12-24T22:56:01.871Z,8.43
2018-12-24T22:58:07.629Z,10.00
2018-12-24T23:00:11.470Z,11.50
2018-12-24T23:02:18.360Z,9.71
2018-12-24T23:04:26.678Z,9.43
2018-12-24T23:06:31.649Z,8.00
2018-12-24T23:08:37.451Z,8.43
2018-12-24T23:10:43.259Z,8.71
2018-12-24T23:12:47.339Z,8.00
2018-12-24T23:14:53.135Z,9.00
2018-12-24T23:16:59.182Z,8.80
2018-12-24T23:19:02.620Z,10.00
2018-12-24T23:21:11.308Z,8.00
2018-12-24T23:23:19.703Z,8.00
2018-12-24T23:25:25.479Z,8.29
2018-12-24T23:27:34.631Z,10.00
2018-12-24T23:29:40.405Z,8.71
2018-12-24T23:31:48.655Z,7.86
2018-12-24T23:33:54.506Z,9.00
2018-12-24T23:36:01.962Z,8.57
2018-12-24T23:38:06.055Z,8.00
2018-12-24T23:40:15.155Z,7.82
2018-12-24T23:42:22.711Z,7.00
2018-12-24T23:44:28.468Z,8.00
2018-12-24T23:46:33.405Z,7.43
2018-12-24T23:48:37.501Z,8.00
2018-12-24T23:50:41.658Z,8.00
2018-12-24T23:52:49.111Z,8.00
2018-12-24T23:54:54.146Z,8.00
2018-12-24T23:57:02.395Z,8.00
2018-12-24T23:59:10.719Z,7.00
